sensor_id;sensor_type;location;lat;lon;timestamp;pressure;altitude;pressure_sealevel;temperature;humidity
64610;BME280;51019;46.090;6.350;2023-05-01T00:01:02;96507.53;;;11.30;100.00
64610;BME280;51019;46.090;6.350;2023-05-01T00:03:30;96488.41;;;11.20;100.00
64610;BME280;51019;46.090;6.350;2023-05-01T00:06:02;96488.28;;;11.21;100.00
64610;BME280;51019;46.090;6.350;2023-05-01T00:08:30;96501.38;;;11.21;100.00
64610;BME280;51019;46.090;6.350;2023-05-01T00:11:01;96497.38;;;11.00;100.00
64610;BME280;51019;46.090;6.350;2023-05-01T00:13:30;96500.88;;;10.90;100.00
64610;BME280;51019;46.090;6.350;2023-05-01T00:15:58;96498.44;;;10.79;100.00
64610;BME280;51019;46.090;6.350;2023-05-01T00:18:25;96488.81;;;10.70;100.00
64610;BME280;51019;46.090;6.350;2023-05-01T00:20:53;96487.84;;;10.71;100.00
64610;BME280;51019;46.090;6.350;2023-05-01T00:23:22;96488.13;;;10.68;100.00
64610;BME280;51019;46.090;6.350;2023-05-01T00:25:49;96455.53;;;10.43;100.00
64610;BME280;51019;46.090;6.350;2023-05-01T00:28:17;96484.91;;;10.74;100.00
64610;BME280;51019;46.090;6.350;2023-05-01T00:30:44;96479.16;;;10.71;100.00
64610;BME280;51019;46.090;6.350;2023-05-01T00:33:12;96465.94;;;10.63;100.00
64610;BME280;51019;46.090;6.350;2023-05-01T00:35:42;96422.63;;;10.31;100.00
64610;BME280;51019;46.090;6.350;2023-05-01T00:38:10;96478.34;;;10.70;100.00
64610;BME280;51019;46.090;6.350;2023-05-01T00:40:43;96478.03;;;10.73;100.00
64610;BME280;51019;46.090;6.350;2023-05-01T00:43:12;96486.09;;;10.52;100.00
64610;BME280;51019;46.090;6.350;2023-05-01T00:45:43;96480.03;;;10.52;100.00
64610;BME280;51019;46.090;6.350;2023-05-01T00:48:10;96477.16;;;10.55;100.00
64610;BME280;51019;46.090;6.350;2023-05-01T00:50:38;96470.84;;;10.48;100.00
64610;BME280;51019;46.090;6.350;2023-05-01T00:53:06;96464.94;;;10.36;100.00
64610;BME280;51019;46.090;6.350;2023-05-01T00:55:34;96471.47;;;10.23;100.00
64610;BME280;51019;46.090;6.350;2023-05-01T00:58:03;96442.38;;;10.06;100.00
64610;BME280;51019;46.090;6.350;2023-05-01T01:00:31;96459.72;;;10.17;100.00
64610;BME280;51019;46.090;6.350;2023-05-01T01:03:00;96460.56;;;10.08;100.00
64610;BME280;51019;46.090;6.350;2023-05-01T01:05:29;96463.31;;;10.06;100.00
64610;BME280;51019;46.090;6.350;2023-05-01T01:08:04;96466.63;;;10.08;100.00
64610;BME280;51019;46.090;6.350;2023-05-01T01:10:45;96466.91;;;10.05;100.00
64610;BME280;51019;46.090;6.350;2023-05-01T01:13:25;96455.75;;;10.03;100.00
64610;BME280;51019;46.090;6.350;2023-05-01T01:15:58;96432.78;;;9.88;100.00
64610;BME280;51019;46.090;6.350;2023-05-01T01:18:32;96458.63;;;10.19;100.00
64610;BME280;51019;46.090;6.350;2023-05-01T01:21:03;96458.88;;;10.16;100.00
64610;BME280;51019;46.090;6.350;2023-05-01T01:23:46;96420.09;;;9.83;100.00
64610;BME280;51019;46.090;6.350;2023-05-01T01:26:29;96450.53;;;10.03;100.00
64610;BME280;51019;46.090;6.350;2023-05-01T01:29:22;96449.53;;;10.24;100.00
64610;BME280;51019;46.090;6.350;2023-05-01T01:32:02;96446.22;;;10.12;100.00
64610;BME280;51019;46.090;6.350;2023-05-01T01:34:43;96445.72;;;9.89;100.00
64610;BME280;51019;46.090;6.350;2023-05-01T01:37:15;96442.56;;;9.66;100.00
64610;BME280;51019;46.090;6.350;2023-05-01T01:39:47;96418.06;;;9.58;100.00
64610;BME280;51019;46.090;6.350;2023-05-01T01:42:18;96445.84;;;9.97;100.00
64610;BME280;51019;46.090;6.350;2023-05-01T01:44:50;96448.56;;;10.05;100.00
64610;BME280;51019;46.090;6.350;2023-05-01T01:47:21;96446.81;;;9.96;100.00
64610;BME280;51019;46.090;6.350;2023-05-01T01:49:55;96440.91;;;9.75;100.00
64610;BME280;51019;46.090;6.350;2023-05-01T01:52:25;96444.09;;;9.69;100.00
64610;BME280;51019;46.090;6.350;2023-05-01T01:54:58;96435.00;;;9.63;100.00
64610;BME280;51019;46.090;6.350;2023-05-01T01:57:28;96439.28;;;9.64;100.00
64610;BME280;51019;46.090;6.350;2023-05-01T01:59:57;96439.81;;;9.48;100.00
64610;BME280;51019;46.090;6.350;2023-05-01T02:02:34;96428.53;;;9.38;100.00
64610;BME280;51019;46.090;6.350;2023-05-01T02:05:23;96411.88;;;9.30;100.00
64610;BME280;51019;46.090;6.350;2023-05-01T02:07:52;96443.81;;;9.62;100.00
64610;BME280;51019;46.090;6.350;2023-05-01T02:10:21;96415.03;;;9.43;100.00
64610;BME280;51019;46.090;6.350;2023-05-01T02:12:50;96447.41;;;9.32;100.00
64610;BME280;51019;46.090;6.350;2023-05-01T02:15:22;96439.56;;;9.23;100.00
64610;BME280;51019;46.090;6.350;2023-05-01T02:17:51;96442.44;;;9.29;100.00
64610;BME280;51019;46.090;6.350;2023-05-01T02:20:25;96437.91;;;9.22;100.00
64610;BME280;51019;46.090;6.350;2023-05-01T02:22:53;96393.69;;;8.90;100.00
64610;BME280;51019;46.090;6.350;2023-05-01T02:25:21;96423.28;;;9.00;100.00
64610;BME280;51019;46.090;6.350;2023-05-01T02:27:54;96431.00;;;9.01;100.00
64610;BME280;51019;46.090;6.350;2023-05-01T02:30:24;96428.22;;;9.03;100.00
64610;BME280;51019;46.090;6.350;2023-05-01T02:32:51;96435.53;;;8.99;100.00
64610;BME280;51019;46.090;6.350;2023-05-01T02:35:24;96425.06;;;9.09;100.00
64610;BME280;51019;46.090;6.350;2023-05-01T02:37:52;96408.81;;;8.86;100.00
64610;BME280;51019;46.090;6.350;2023-05-01T02:40:19;96430.09;;;8.82;100.00
64610;BME280;51019;46.090;6.350;2023-05-01T02:42:48;96426.81;;;8.80;100.00
64610;BME280;51019;46.090;6.350;2023-05-01T02:45:19;96421.84;;;8.77;100.00
64610;BME280;51019;46.090;6.350;2023-05-01T02:47:49;96425.28;;;8.67;100.00
64610;BME280;51019;46.090;6.350;2023-05-01T02:50:18;96425.28;;;8.67;100.00
64610;BME280;51019;46.090;6.350;2023-05-01T02:52:48;96426.34;;;8.55;100.00
64610;BME280;51019;46.090;6.350;2023-05-01T02:55:18;96432.94;;;8.59;100.00
64610;BME280;51019;46.090;6.350;2023-05-01T02:57:45;96434.19;;;8.55;100.00
64610;BME280;51019;46.090;6.350;2023-05-01T03:00:13;96399.88;;;8.39;100.00
64610;BME280;51019;46.090;6.350;2023-05-01T03:02:41;96411.19;;;8.49;100.00
64610;BME280;51019;46.090;6.350;2023-05-01T03:05:08;96430.31;;;8.59;100.00
64610;BME280;51019;46.090;6.350;2023-05-01T03:07:36;96430.28;;;8.50;100.00
64610;BME280;51019;46.090;6.350;2023-05-01T03:10:06;96428.19;;;8.34;100.00
64610;BME280;51019;46.090;6.350;2023-05-01T03:12:34;96418.84;;;8.41;100.00
64610;BME280;51019;46.090;6.350;2023-05-01T03:15:01;96412.88;;;8.29;100.00
64610;BME280;51019;46.090;6.350;2023-05-01T03:17:28;96422.00;;;8.14;100.00
64610;BME280;51019;46.090;6.350;2023-05-01T03:19:56;96410.97;;;8.01;100.00
64610;BME280;51019;46.090;6.350;2023-05-01T03:22:23;96415.91;;;8.04;100.00
64610;BME280;51019;46.090;6.350;2023-05-01T03:24:51;96407.69;;;8.09;100.00
64610;BME280;51019;46.090;6.350;2023-05-01T03:27:20;96409.97;;;8.23;100.00
64610;BME280;51019;46.090;6.350;2023-05-01T03:29:47;96407.66;;;8.29;100.00
64610;BME280;51019;46.090;6.350;2023-05-01T03:32:14;96415.13;;;8.34;100.00
64610;BME280;51019;46.090;6.350;2023-05-01T03:34:42;96408.78;;;8.36;100.00
64610;BME280;51019;46.090;6.350;2023-05-01T03:37:10;96402.75;;;8.36;100.00
64610;BME280;51019;46.090;6.350;2023-05-01T03:39:37;96404.41;;;8.37;100.00
64610;BME280;51019;46.090;6.350;2023-05-01T03:42:05;96402.63;;;8.37;100.00
64610;BME280;51019;46.090;6.350;2023-05-01T03:44:34;96396.56;;;8.37;100.00
64610;BME280;51019;46.090;6.350;2023-05-01T03:47:01;96396.22;;;8.51;100.00
64610;BME280;51019;46.090;6.350;2023-05-01T03:49:30;96334.63;;;8.09;100.00
64610;BME280;51019;46.090;6.350;2023-05-01T03:51:57;96391.38;;;8.47;100.00
64610;BME280;51019;46.090;6.350;2023-05-01T03:54:24;96398.81;;;8.51;100.00
64610;BME280;51019;46.090;6.350;2023-05-01T03:56:52;96346.47;;;8.22;100.00
64610;BME280;51019;46.090;6.350;2023-05-01T03:59:19;96406.56;;;8.62;100.00
64610;BME280;51019;46.090;6.350;2023-05-01T04:01:48;96402.13;;;8.53;100.00
64610;BME280;51019;46.090;6.350;2023-05-01T04:04:15;96402.16;;;8.63;100.00
64610;BME280;51019;46.090;6.350;2023-05-01T04:06:43;96408.84;;;8.46;100.00
64610;BME280;51019;46.090;6.350;2023-05-01T04:09:12;96400.13;;;8.36;100.00
64610;BME280;51019;46.090;6.350;2023-05-01T04:11:40;96404.97;;;8.41;100.00
64610;BME280;51019;46.090;6.350;2023-05-01T04:14:08;96413.06;;;8.37;100.00
64610;BME280;51019;46.090;6.350;2023-05-01T04:16:35;96410.19;;;8.41;100.00
64610;BME280;51019;46.090;6.350;2023-05-01T04:19:06;96409.13;;;8.43;100.00
64610;BME280;51019;46.090;6.350;2023-05-01T04:21:33;96397.72;;;8.44;100.00
64610;BME280;51019;46.090;6.350;2023-05-01T04:24:00;96395.19;;;8.33;100.00
64610;BME280;51019;46.090;6.350;2023-05-01T04:26:28;96410.47;;;8.47;100.00
64610;BME280;51019;46.090;6.350;2023-05-01T04:28:56;96410.47;;;8.47;100.00
64610;BME280;51019;46.090;6.350;2023-05-01T04:31:24;96416.06;;;8.73;100.00
64610;BME280;51019;46.090;6.350;2023-05-01T04:33:52;96420.09;;;8.87;100.00
64610;BME280;51019;46.090;6.350;2023-05-01T04:36:21;96410.72;;;8.74;100.00
64610;BME280;51019;46.090;6.350;2023-05-01T04:38:48;96426.13;;;8.78;100.00
64610;BME280;51019;46.090;6.350;2023-05-01T04:41:15;96339.72;;;8.10;100.00
64610;BME280;51019;46.090;6.350;2023-05-01T04:43:44;96432.94;;;8.59;100.00
64610;BME280;51019;46.090;6.350;2023-05-01T04:46:11;96429.13;;;8.73;100.00
64610;BME280;51019;46.090;6.350;2023-05-01T04:48:38;96407.25;;;8.64;100.00
64610;BME280;51019;46.090;6.350;2023-05-01T04:51:06;96411.81;;;8.82;100.00
64610;BME280;51019;46.090;6.350;2023-05-01T04:53:35;96405.94;;;8.89;100.00
64610;BME280;51019;46.090;6.350;2023-05-01T04:56:02;96433.56;;;8.92;100.00
64610;BME280;51019;46.090;6.350;2023-05-01T04:58:30;96425.72;;;8.92;100.00
64610;BME280;51019;46.090;6.350;2023-05-01T05:00:57;96437.44;;;8.88;100.00
64610;BME280;51019;46.090;6.350;2023-05-01T05:03:25;96434.13;;;8.95;100.00
64610;BME280;51019;46.090;6.350;2023-05-01T05:05:52;96443.50;;;9.07;100.00
64610;BME280;51019;46.090;6.350;2023-05-01T05:08:19;96437.44;;;8.97;100.00
64610;BME280;51019;46.090;6.350;2023-05-01T05:10:48;96439.78;;;8.91;100.00
64610;BME280;51019;46.090;6.350;2023-05-01T05:13:16;96437.69;;;8.85;100.00
64610;BME280;51019;46.090;6.350;2023-05-01T05:15:43;96451.75;;;9.03;100.00
64610;BME280;51019;46.090;6.350;2023-05-01T05:18:11;96453.41;;;9.04;100.00
64610;BME280;51019;46.090;6.350;2023-05-01T05:20:38;96447.50;;;9.02;100.00
64610;BME280;51019;46.090;6.350;2023-05-01T05:23:05;96449.34;;;8.81;100.00
64610;BME280;51019;46.090;6.350;2023-05-01T05:25:33;96439.31;;;8.66;100.00
64610;BME280;51019;46.090;6.350;2023-05-01T05:28:02;96370.06;;;8.11;100.00
64610;BME280;51019;46.090;6.350;2023-05-01T05:30:29;96463.53;;;8.78;100.00
64610;BME280;51019;46.090;6.350;2023-05-01T05:32:56;96456.13;;;8.93;100.00
64610;BME280;51019;46.090;6.350;2023-05-01T05:35:24;96439.50;;;8.94;100.00
64610;BME280;51019;46.090;6.350;2023-05-01T05:37:52;96447.34;;;8.94;100.00
64610;BME280;51019;46.090;6.350;2023-05-01T05:40:19;96446.53;;;9.03;100.00
64610;BME280;51019;46.090;6.350;2023-05-01T05:42:47;96447.91;;;9.17;100.00
64610;BME280;51019;46.090;6.350;2023-05-01T05:45:16;96441.47;;;9.11;100.00
64610;BME280;51019;46.090;6.350;2023-05-01T05:47:44;96447.66;;;9.20;100.00
64610;BME280;51019;46.090;6.350;2023-05-01T05:50:11;96446.69;;;9.21;100.00
64610;BME280;51019;46.090;6.350;2023-05-01T05:52:40;96434.31;;;9.23;100.00
64610;BME280;51019;46.090;6.350;2023-05-01T05:55:08;96439.41;;;9.43;100.00
64610;BME280;51019;46.090;6.350;2023-05-01T05:57:36;96444.78;;;9.52;100.00
64610;BME280;51019;46.090;6.350;2023-05-01T06:00:04;96435.00;;;9.44;100.00
64610;BME280;51019;46.090;6.350;2023-05-01T06:02:36;96445.19;;;9.37;100.00
64610;BME280;51019;46.090;6.350;2023-05-01T06:05:06;96445.22;;;9.47;100.00
64610;BME280;51019;46.090;6.350;2023-05-01T06:07:34;96437.34;;;9.57;100.00
64610;BME280;51019;46.090;6.350;2023-05-01T06:10:04;96447.94;;;9.65;100.00
64610;BME280;51019;46.090;6.350;2023-05-01T06:12:31;96457.31;;;9.67;100.00
64610;BME280;51019;46.090;6.350;2023-05-01T06:14:59;96464.88;;;9.61;100.00
64610;BME280;51019;46.090;6.350;2023-05-01T06:17:29;96475.50;;;9.59;100.00
64610;BME280;51019;46.090;6.350;2023-05-01T06:20:01;96474.38;;;9.62;100.00
64610;BME280;51019;46.090;6.350;2023-05-01T06:22:31;96481.56;;;9.69;100.00
64610;BME280;51019;46.090;6.350;2023-05-01T06:24:58;96485.00;;;9.79;100.00
64610;BME280;51019;46.090;6.350;2023-05-01T06:27:26;96479.91;;;9.78;100.00
64610;BME280;51019;46.090;6.350;2023-05-01T06:29:56;96482.38;;;9.79;100.00
64610;BME280;51019;46.090;6.350;2023-05-01T06:32:24;96488.69;;;9.87;100.00
64610;BME280;51019;46.090;6.350;2023-05-01T06:34:52;96499.16;;;9.96;100.00
64610;BME280;51019;46.090;6.350;2023-05-01T06:37:22;96491.72;;;10.01;100.00
64610;BME280;51019;46.090;6.350;2023-05-01T06:39:50;96486.50;;;10.01;100.00
64610;BME280;51019;46.090;6.350;2023-05-01T06:42:19;96492.97;;;9.97;100.00
64610;BME280;51019;46.090;6.350;2023-05-01T06:44:51;96479.59;;;10.10;100.00
64610;BME280;51019;46.090;6.350;2023-05-01T06:47:18;96487.88;;;10.25;100.00
64610;BME280;51019;46.090;6.350;2023-05-01T06:49:47;96503.09;;;10.39;100.00
64610;BME280;51019;46.090;6.350;2023-05-01T06:52:17;96504.22;;;10.17;100.00
64610;BME280;51019;46.090;6.350;2023-05-01T06:54:51;96512.38;;;10.14;100.00
64610;BME280;51019;46.090;6.350;2023-05-01T06:57:19;96512.78;;;10.09;100.00
64610;BME280;51019;46.090;6.350;2023-05-01T06:59:46;96520.53;;;10.21;100.00
64610;BME280;51019;46.090;6.350;2023-05-01T07:02:16;96507.16;;;10.14;100.00
64610;BME280;51019;46.090;6.350;2023-05-01T07:04:46;96527.28;;;10.04;100.00
64610;BME280;51019;46.090;6.350;2023-05-01T07:07:23;96504.66;;;9.93;100.00
64610;BME280;51019;46.090;6.350;2023-05-01T07:09:52;96530.84;;;9.93;100.00
64610;BME280;51019;46.090;6.350;2023-05-01T07:12:23;96524.25;;;9.99;100.00
64610;BME280;51019;46.090;6.350;2023-05-01T07:14:51;96523.84;;;10.03;100.00
64610;BME280;51019;46.090;6.350;2023-05-01T07:17:20;96534.72;;;10.18;100.00
64610;BME280;51019;46.090;6.350;2023-05-01T07:19:49;96531.13;;;10.09;100.00
64610;BME280;51019;46.090;6.350;2023-05-01T07:22:18;96540.09;;;9.97;100.00
64610;BME280;51019;46.090;6.350;2023-05-01T07:24:46;96545.75;;;10.22;100.00
64610;BME280;51019;46.090;6.350;2023-05-01T07:27:16;96547.09;;;10.45;100.00
64610;BME280;51019;46.090;6.350;2023-05-01T07:29:45;96556.50;;;10.38;100.00
64610;BME280;51019;46.090;6.350;2023-05-01T07:32:12;96555.81;;;10.36;100.00
64610;BME280;51019;46.090;6.350;2023-05-01T07:34:40;96554.72;;;10.38;100.00
64610;BME280;51019;46.090;6.350;2023-05-01T07:37:10;96531.66;;;10.42;100.00
64610;BME280;51019;46.090;6.350;2023-05-01T07:39:38;96546.28;;;10.44;100.00
64610;BME280;51019;46.090;6.350;2023-05-01T07:42:06;96532.59;;;10.60;100.00
64610;BME280;51019;46.090;6.350;2023-05-01T07:44:37;96553.22;;;10.73;100.00
64610;BME280;51019;46.090;6.350;2023-05-01T07:47:06;96546.03;;;10.75;100.00
64610;BME280;51019;46.090;6.350;2023-05-01T07:49:34;96549.50;;;10.75;100.00
64610;BME280;51019;46.090;6.350;2023-05-01T07:52:04;96560.59;;;10.50;100.00
64610;BME280;51019;46.090;6.350;2023-05-01T07:54:33;96548.00;;;10.63;100.00
64610;BME280;51019;46.090;6.350;2023-05-01T07:57:01;96554.06;;;10.64;100.00
64610;BME280;51019;46.090;6.350;2023-05-01T07:59:28;96553.13;;;10.65;100.00
64610;BME280;51019;46.090;6.350;2023-05-01T08:01:59;96558.63;;;10.62;100.00
64610;BME280;51019;46.090;6.350;2023-05-01T08:04:30;96564.16;;;10.68;100.00
64610;BME280;51019;46.090;6.350;2023-05-01T08:06:59;96547.66;;;10.39;100.00
64610;BME280;51019;46.090;6.350;2023-05-01T08:09:26;96562.56;;;10.29;100.00
64610;BME280;51019;46.090;6.350;2023-05-01T08:11:55;96560.19;;;10.45;100.00
64610;BME280;51019;46.090;6.350;2023-05-01T08:14:24;96568.28;;;10.61;100.00
64610;BME280;51019;46.090;6.350;2023-05-01T08:16:53;96554.50;;;10.69;100.00
64610;BME280;51019;46.090;6.350;2023-05-01T08:19:23;96546.34;;;10.62;100.00
64610;BME280;51019;46.090;6.350;2023-05-01T08:21:52;96544.00;;;10.69;100.00
64610;BME280;51019;46.090;6.350;2023-05-01T08:24:21;96560.00;;;10.66;100.00
64610;BME280;51019;46.090;6.350;2023-05-01T08:26:49;96563.53;;;10.37;100.00
64610;BME280;51019;46.090;6.350;2023-05-01T08:29:18;96556.63;;;10.36;100.00
64610;BME280;51019;46.090;6.350;2023-05-01T08:31:46;96558.44;;;10.26;100.00
64610;BME280;51019;46.090;6.350;2023-05-01T08:34:13;96558.28;;;10.28;100.00
64610;BME280;51019;46.090;6.350;2023-05-01T08:36:43;96538.97;;;10.29;100.00
64610;BME280;51019;46.090;6.350;2023-05-01T08:39:12;96566.69;;;10.87;100.00
64610;BME280;51019;46.090;6.350;2023-05-01T08:41:44;96566.06;;;11.13;100.00
64610;BME280;51019;46.090;6.350;2023-05-01T08:44:13;96571.75;;;11.36;100.00
64610;BME280;51019;46.090;6.350;2023-05-01T08:46:45;96555.13;;;11.45;100.00
64610;BME280;51019;46.090;6.350;2023-05-01T08:49:15;96565.34;;;11.65;100.00
64610;BME280;51019;46.090;6.350;2023-05-01T08:51:46;96562.94;;;11.82;100.00
64610;BME280;51019;46.090;6.350;2023-05-01T08:54:15;96489.34;;;11.46;100.00
64610;BME280;51019;46.090;6.350;2023-05-01T08:56:46;96567.50;;;12.15;100.00
64610;BME280;51019;46.090;6.350;2023-05-01T08:59:16;96547.47;;;12.14;100.00
64610;BME280;51019;46.090;6.350;2023-05-01T09:01:45;96553.09;;;12.45;100.00
64610;BME280;51019;46.090;6.350;2023-05-01T09:04:13;96558.88;;;12.49;100.00
64610;BME280;51019;46.090;6.350;2023-05-01T09:06:44;96526.53;;;12.48;100.00
64610;BME280;51019;46.090;6.350;2023-05-01T09:09:12;96552.97;;;12.47;100.00
64610;BME280;51019;46.090;6.350;2023-05-01T09:11:43;96555.22;;;12.67;100.00
64610;BME280;51019;46.090;6.350;2023-05-01T09:14:11;96557.66;;;12.61;100.00
64610;BME280;51019;46.090;6.350;2023-05-01T09:16:39;96543.72;;;12.68;100.00
64610;BME280;51019;46.090;6.350;2023-05-01T09:19:07;96545.53;;;12.68;100.00
64610;BME280;51019;46.090;6.350;2023-05-01T09:21:35;96552.44;;;12.69;100.00
64610;BME280;51019;46.090;6.350;2023-05-01T09:24:05;96560.19;;;12.96;100.00
64610;BME280;51019;46.090;6.350;2023-05-01T09:26:33;96523.97;;;12.90;100.00
64610;BME280;51019;46.090;6.350;2023-05-01T09:29:03;96558.56;;;12.78;100.00
64610;BME280;51019;46.090;6.350;2023-05-01T09:31:31;96522.44;;;12.28;100.00
64610;BME280;51019;46.090;6.350;2023-05-01T09:34:02;96563.28;;;13.18;100.00
64610;BME280;51019;46.090;6.350;2023-05-01T09:36:32;96563.66;;;13.05;100.00
64610;BME280;51019;46.090;6.350;2023-05-01T09:39:04;96554.22;;;13.62;100.00
64610;BME280;51019;46.090;6.350;2023-05-01T09:41:34;96563.91;;;13.54;100.00
64610;BME280;51019;46.090;6.350;2023-05-01T09:44:17;96562.00;;;13.30;100.00
64610;BME280;51019;46.090;6.350;2023-05-01T09:46:45;96557.16;;;13.51;100.00
64610;BME280;51019;46.090;6.350;2023-05-01T09:49:14;96568.59;;;13.34;100.00
64610;BME280;51019;46.090;6.350;2023-05-01T09:51:42;96527.69;;;13.14;100.00
64610;BME280;51019;46.090;6.350;2023-05-01T09:54:18;96567.13;;;13.31;100.00
64610;BME280;51019;46.090;6.350;2023-05-01T09:56:48;96575.16;;;13.30;100.00
64610;BME280;51019;46.090;6.350;2023-05-01T09:59:18;96572.28;;;12.89;100.00
64610;BME280;51019;46.090;6.350;2023-05-01T10:01:50;96565.38;;;12.88;100.00
64610;BME280;51019;46.090;6.350;2023-05-01T10:04:29;96572.97;;;12.91;100.00
64610;BME280;51019;46.090;6.350;2023-05-01T10:07:00;96574.47;;;12.68;100.00
64610;BME280;51019;46.090;6.350;2023-05-01T10:09:38;96565.31;;;12.54;100.00
64610;BME280;51019;46.090;6.350;2023-05-01T10:12:07;96571.00;;;12.24;100.00
64610;BME280;51019;46.090;6.350;2023-05-01T10:14:49;96577.81;;;12.52;100.00
64610;BME280;51019;46.090;6.350;2023-05-01T10:17:17;96560.25;;;12.35;100.00
64610;BME280;51019;46.090;6.350;2023-05-01T10:19:45;96580.50;;;12.43;100.00
64610;BME280;51019;46.090;6.350;2023-05-01T10:22:13;96569.03;;;12.44;100.00
64610;BME280;51019;46.090;6.350;2023-05-01T10:24:44;96587.75;;;12.66;100.00
64610;BME280;51019;46.090;6.350;2023-05-01T10:27:12;96585.66;;;12.70;100.00
64610;BME280;51019;46.090;6.350;2023-05-01T10:29:41;96586.34;;;12.54;100.00
64610;BME280;51019;46.090;6.350;2023-05-01T10:32:13;96557.56;;;12.27;100.00
64610;BME280;51019;46.090;6.350;2023-05-01T10:34:44;96586.31;;;12.46;100.00
64610;BME280;51019;46.090;6.350;2023-05-01T10:37:19;96568.16;;;12.35;100.00
64610;BME280;51019;46.090;6.350;2023-05-01T10:39:52;96598.75;;;12.62;100.00
64610;BME280;51019;46.090;6.350;2023-05-01T10:42:20;96593.00;;;12.41;100.00
64610;BME280;51019;46.090;6.350;2023-05-01T10:44:48;96585.56;;;12.36;100.00
64610;BME280;51019;46.090;6.350;2023-05-01T10:47:44;96593.06;;;12.49;100.00
64610;BME280;51019;46.090;6.350;2023-05-01T10:50:13;96598.91;;;12.60;100.00
64610;BME280;51019;46.090;6.350;2023-05-01T10:53:14;96594.25;;;12.54;100.00
64610;BME280;51019;46.090;6.350;2023-05-01T10:55:45;96590.03;;;12.61;100.00
64610;BME280;51019;46.090;6.350;2023-05-01T11:01:32;96597.53;;;12.74;100.00
64610;BME280;51019;46.090;6.350;2023-05-01T11:04:02;96599.00;;;12.51;100.00
64610;BME280;51019;46.090;6.350;2023-05-01T11:06:33;96584.06;;;12.51;100.00
64610;BME280;51019;46.090;6.350;2023-05-01T11:09:01;96597.53;;;12.56;100.00
64610;BME280;51019;46.090;6.350;2023-05-01T11:11:47;96594.66;;;12.24;100.00
64610;BME280;51019;46.090;6.350;2023-05-01T11:14:15;96598.25;;;12.41;100.00
64610;BME280;51019;46.090;6.350;2023-05-01T11:16:44;96588.28;;;12.26;100.00
64610;BME280;51019;46.090;6.350;2023-05-01T11:19:45;96586.56;;;12.17;100.00
64610;BME280;51019;46.090;6.350;2023-05-01T11:22:26;96550.38;;;12.11;100.00
64610;BME280;51019;46.090;6.350;2023-05-01T11:24:54;96580.94;;;12.56;100.00
64610;BME280;51019;46.090;6.350;2023-05-01T11:27:23;96578.78;;;12.77;100.00
64610;BME280;51019;46.090;6.350;2023-05-01T11:29:53;96583.63;;;12.90;100.00
64610;BME280;51019;46.090;6.350;2023-05-01T11:32:25;96568.03;;;13.22;100.00
64610;BME280;51019;46.090;6.350;2023-05-01T11:34:54;96540.13;;;13.29;100.00
64610;BME280;51019;46.090;6.350;2023-05-01T11:37:40;96576.53;;;13.42;100.00
64610;BME280;51019;46.090;6.350;2023-05-01T11:40:19;96565.66;;;14.11;100.00
64610;BME280;51019;46.090;6.350;2023-05-01T11:42:50;96568.63;;;14.73;100.00
64610;BME280;51019;46.090;6.350;2023-05-01T11:45:18;96572.38;;;15.11;100.00
64610;BME280;51019;46.090;6.350;2023-05-01T11:47:47;96565.84;;;14.75;100.00
64610;BME280;51019;46.090;6.350;2023-05-01T11:50:14;96562.19;;;15.39;100.00
64610;BME280;51019;46.090;6.350;2023-05-01T11:52:43;96562.38;;;14.74;100.00
64610;BME280;51019;46.090;6.350;2023-05-01T11:55:14;96565.16;;;15.36;100.00
64610;BME280;51019;46.090;6.350;2023-05-01T11:57:50;96556.63;;;15.26;100.00
64610;BME280;51019;46.090;6.350;2023-05-01T12:00:25;96561.44;;;15.14;100.00
64610;BME280;51019;46.090;6.350;2023-05-01T12:03:00;96543.09;;;15.68;100.00
64610;BME280;51019;46.090;6.350;2023-05-01T12:05:30;96556.69;;;15.02;100.00
64610;BME280;51019;46.090;6.350;2023-05-01T12:08:08;96549.03;;;15.31;100.00
64610;BME280;51019;46.090;6.350;2023-05-01T12:10:37;96555.16;;;15.23;100.00
64610;BME280;51019;46.090;6.350;2023-05-01T12:13:09;96550.31;;;14.88;100.00
64610;BME280;51019;46.090;6.350;2023-05-01T12:15:38;96552.97;;;14.72;100.00
64610;BME280;51019;46.090;6.350;2023-05-01T12:18:07;96556.56;;;14.79;100.00
64610;BME280;51019;46.090;6.350;2023-05-01T12:20:37;96531.72;;;14.65;100.00
64610;BME280;51019;46.090;6.350;2023-05-01T12:23:06;96553.88;;;15.03;100.00
64610;BME280;51019;46.090;6.350;2023-05-01T12:25:36;96545.09;;;15.66;100.00
64610;BME280;51019;46.090;6.350;2023-05-01T12:28:09;96556.66;;;15.65;100.00
64610;BME280;51019;46.090;6.350;2023-05-01T12:30:38;96557.09;;;14.74;100.00
64610;BME280;51019;46.090;6.350;2023-05-01T12:33:11;96558.75;;;14.67;100.00
64610;BME280;51019;46.090;6.350;2023-05-01T12:35:41;96542.75;;;14.36;100.00
64610;BME280;51019;46.090;6.350;2023-05-01T12:38:13;96546.75;;;14.48;100.00
64610;BME280;51019;46.090;6.350;2023-05-01T12:40:51;96551.50;;;14.45;100.00
64610;BME280;51019;46.090;6.350;2023-05-01T12:43:29;96538.50;;;14.19;100.00
64610;BME280;51019;46.090;6.350;2023-05-01T12:45:57;96544.09;;;14.32;100.00
64610;BME280;51019;46.090;6.350;2023-05-01T12:48:27;96542.28;;;14.49;100.00
64610;BME280;51019;46.090;6.350;2023-05-01T12:50:54;96544.91;;;14.08;100.00
64610;BME280;51019;46.090;6.350;2023-05-01T12:53:24;96535.19;;;14.25;100.00
64610;BME280;51019;46.090;6.350;2023-05-01T12:55:54;96531.22;;;14.78;100.00
64610;BME280;51019;46.090;6.350;2023-05-01T12:58:23;96552.00;;;14.73;100.00
64610;BME280;51019;46.090;6.350;2023-05-01T13:01:02;96554.78;;;14.71;100.00
64610;BME280;51019;46.090;6.350;2023-05-01T13:03:32;96543.44;;;14.46;100.00
64610;BME280;51019;46.090;6.350;2023-05-01T13:06:00;96558.63;;;14.52;100.00
64610;BME280;51019;46.090;6.350;2023-05-01T13:08:32;96563.69;;;14.78;100.00
64610;BME280;51019;46.090;6.350;2023-05-01T13:11:09;96571.16;;;14.42;100.00
64610;BME280;51019;46.090;6.350;2023-05-01T13:13:39;96568.97;;;14.70;100.00